createdAt,value
2023-05-22T00:00:28.620Z,50.80
2023-05-22T00:02:55.736Z,50.97
2023-05-22T00:05:23.017Z,50.91
2023-05-22T00:07:53.407Z,50.92
2023-05-22T00:10:20.533Z,50.79
2023-05-22T00:12:47.548Z,50.87
2023-05-22T00:15:16.086Z,50.87
2023-05-22T00:17:44.626Z,50.99
2023-05-22T00:20:12.155Z,51.16
2023-05-22T00:22:39.229Z,51.15
2023-05-22T00:25:07.016Z,51.36
2023-05-22T00:27:34.180Z,51.55
2023-05-22T00:30:01.631Z,51.46
2023-05-22T00:32:28.937Z,51.53
2023-05-22T00:34:56.075Z,51.71
2023-05-22T00:37:23.362Z,51.81
2023-05-22T00:39:50.438Z,51.87
2023-05-22T00:42:18.482Z,51.74
2023-05-22T00:44:46.197Z,51.66
2023-05-22T00:47:13.242Z,51.48
2023-05-22T00:49:41.205Z,51.47
2023-05-22T00:52:09.210Z,51.50
2023-05-22T00:54:36.231Z,51.56
2023-05-22T00:57:04.878Z,51.74
2023-05-22T00:59:31.952Z,51.83
2023-05-22T01:01:58.992Z,51.78
2023-05-22T01:04:26.213Z,51.84
2023-05-22T01:06:53.895Z,51.89
2023-05-22T01:09:20.930Z,52.03
2023-05-22T01:11:55.956Z,52.12
2023-05-22T01:14:39.278Z,52.21
2023-05-22T01:17:38.313Z,52.31
2023-05-22T01:20:14.547Z,52.33
2023-05-22T01:22:58.759Z,52.35
2023-05-22T01:25:35.382Z,52.34
2023-05-22T01:28:24.038Z,52.41
2023-05-22T01:31:08.372Z,52.48
2023-05-22T01:33:58.193Z,52.51
2023-05-22T01:36:28.482Z,52.59
2023-05-22T01:38:55.760Z,52.57
2023-05-22T01:41:22.920Z,52.70
2023-05-22T01:43:49.955Z,52.93
2023-05-22T01:46:17.063Z,53.10
2023-05-22T01:48:44.173Z,53.15
2023-05-22T01:51:35.433Z,53.38
2023-05-22T01:54:15.641Z,53.49
2023-05-22T01:56:55.095Z,53.51
2023-05-22T01:59:35.416Z,53.66
2023-05-22T02:02:05.691Z,53.74
2023-05-22T02:04:33.029Z,53.94
2023-05-22T02:07:02.803Z,53.87
2023-05-22T02:09:31.323Z,53.79
2023-05-22T02:11:59.042Z,53.75
2023-05-22T02:14:27.929Z,53.67
2023-05-22T02:16:55.130Z,53.63
2023-05-22T02:19:22.319Z,53.74
2023-05-22T02:21:49.483Z,53.76
2023-05-22T02:24:16.574Z,53.72
2023-05-22T02:26:43.663Z,53.94
2023-05-22T02:29:10.976Z,53.86
2023-05-22T02:31:38.738Z,53.84
2023-05-22T02:34:06.801Z,53.93
2023-05-22T02:36:33.852Z,53.81
2023-05-22T02:39:00.969Z,53.72
2023-05-22T02:41:28.106Z,53.45
2023-05-22T02:43:55.396Z,53.31
2023-05-22T02:46:22.497Z,53.18
2023-05-22T02:48:51.004Z,53.03
2023-05-22T02:51:18.770Z,52.96
2023-05-22T02:53:45.842Z,52.94
2023-05-22T02:56:12.874Z,52.93
2023-05-22T02:58:39.924Z,52.80
2023-05-22T03:01:09.288Z,52.83
2023-05-22T03:03:36.669Z,52.76
2023-05-22T03:06:04.531Z,52.72
2023-05-22T03:08:33.049Z,52.70
2023-05-22T03:11:01.667Z,52.57
2023-05-22T03:13:28.783Z,52.58
2023-05-22T03:15:55.996Z,52.42
2023-05-22T03:18:25.316Z,52.45
2023-05-22T03:20:53.721Z,52.58
2023-05-22T03:23:25.324Z,52.60
2023-05-22T03:25:52.574Z,52.46
2023-05-22T03:28:19.982Z,52.40
2023-05-22T03:30:47.783Z,52.45
2023-05-22T03:33:19.986Z,52.29
2023-05-22T03:35:47.214Z,52.22
2023-05-22T03:38:14.523Z,51.92
2023-05-22T03:40:41.876Z,51.49
2023-05-22T03:43:09.543Z,51.11
2023-05-22T03:45:36.751Z,50.74
2023-05-22T03:48:04.292Z,50.49
2023-05-22T03:50:31.392Z,50.21
2023-05-22T03:52:58.475Z,49.94
2023-05-22T03:55:26.756Z,49.60
2023-05-22T03:57:53.819Z,49.36
2023-05-22T04:00:20.934Z,49.15
2023-05-22T04:02:48.233Z,48.73
2023-05-22T04:05:15.890Z,48.57
2023-05-22T04:07:44.404Z,48.49
2023-05-22T04:10:13.116Z,48.22
2023-05-22T04:12:40.460Z,47.61
2023-05-22T04:15:09.336Z,47.35
2023-05-22T04:17:40.006Z,47.52
2023-05-22T04:20:08.787Z,47.50
2023-05-22T04:22:35.903Z,47.35
2023-05-22T04:25:03.473Z,47.09
2023-05-22T04:27:31.046Z,46.64
2023-05-22T04:30:00.234Z,46.33
2023-05-22T04:32:27.715Z,45.84
2023-05-22T04:34:54.733Z,45.39
2023-05-22T04:37:21.824Z,45.10
2023-05-22T04:39:53.165Z,45.05
2023-05-22T04:42:20.733Z,44.87
2023-05-22T04:44:48.499Z,44.50
2023-05-22T04:47:15.584Z,44.52
2023-05-22T04:49:43.888Z,43.98
2023-05-22T04:52:11.857Z,42.76
2023-05-22T04:54:39.107Z,41.79
2023-05-22T04:57:06.337Z,41.74
2023-05-22T04:59:38.194Z,41.41
2023-05-22T05:02:05.970Z,41.33
2023-05-22T05:04:33.431Z,40.58
2023-05-22T05:07:00.491Z,40.76
2023-05-22T05:09:27.639Z,40.30
2023-05-22T05:11:55.189Z,39.70
2023-05-22T05:14:22.189Z,39.79
2023-05-22T05:16:52.060Z,39.36
2023-05-22T05:19:22.887Z,39.20
2023-05-22T05:21:50.028Z,38.89
2023-05-22T05:24:20.043Z,38.75
2023-05-22T05:26:48.339Z,38.48
2023-05-22T05:29:17.292Z,37.75
2023-05-22T05:32:07.672Z,38.10
2023-05-22T05:34:47.513Z,38.09
2023-05-22T05:37:24.864Z,37.84
2023-05-22T05:39:53.114Z,37.49
2023-05-22T05:42:20.701Z,37.26
2023-05-22T05:44:50.342Z,37.28
2023-05-22T05:47:18.733Z,37.47
2023-05-22T05:49:45.911Z,37.27
2023-05-22T05:52:14.992Z,37.05
2023-05-22T05:54:46.779Z,36.90
2023-05-22T05:57:16.685Z,36.58
2023-05-22T05:59:43.737Z,36.13
2023-05-22T06:02:29.175Z,35.95
2023-05-22T06:04:59.272Z,36.09
2023-05-22T06:07:28.760Z,35.95
2023-05-22T06:09:55.982Z,36.09
2023-05-22T06:12:38.714Z,35.81
2023-05-22T06:15:07.601Z,35.68
2023-05-22T06:17:35.308Z,35.50
2023-05-22T06:20:02.333Z,35.27
2023-05-22T06:22:30.020Z,35.46
2023-05-22T06:24:58.506Z,34.82
2023-05-22T06:27:27.981Z,34.21
2023-05-22T06:29:56.421Z,34.09
2023-05-22T06:32:24.879Z,34.01
2023-05-22T06:34:52.395Z,33.82
2023-05-22T06:37:20.046Z,33.77
2023-05-22T06:39:47.799Z,33.44
2023-05-22T06:42:33.968Z,33.34
2023-05-22T06:45:20.099Z,33.66
2023-05-22T06:48:12.080Z,33.25
2023-05-22T06:50:46.706Z,32.92
2023-05-22T06:53:14.026Z,33.15
2023-05-22T06:55:42.116Z,32.86
2023-05-22T06:58:12.919Z,32.90
2023-05-22T07:00:40.207Z,32.99
2023-05-22T07:03:15.140Z,32.78
2023-05-22T07:06:06.374Z,32.44
2023-05-22T07:08:34.183Z,32.04
2023-05-22T07:11:02.312Z,32.59
2023-05-22T07:13:32.562Z,31.86
2023-05-22T07:15:59.773Z,32.04
2023-05-22T07:18:27.462Z,32.15
2023-05-22T07:20:54.869Z,32.73
2023-05-22T07:23:24.422Z,32.27
2023-05-22T07:25:53.352Z,31.86
2023-05-22T07:28:21.706Z,31.77
2023-05-22T07:30:53.905Z,31.69
2023-05-22T07:33:21.168Z,31.09
2023-05-22T07:35:48.842Z,31.20
2023-05-22T07:38:16.384Z,31.37
2023-05-22T07:40:48.514Z,31.41
2023-05-22T07:43:15.844Z,30.93
2023-05-22T07:45:44.431Z,31.05
2023-05-22T07:48:12.857Z,30.59
2023-05-22T07:50:40.077Z,29.54
2023-05-22T07:53:07.138Z,29.23
2023-05-22T07:55:37.507Z,29.48
2023-05-22T07:58:05.395Z,29.62
2023-05-22T08:00:36.018Z,28.85
2023-05-22T08:03:04.447Z,28.72
2023-05-22T08:05:33.008Z,27.39
2023-05-22T08:08:00.070Z,27.23
2023-05-22T08:10:41.706Z,27.80
2023-05-22T08:13:16.660Z,27.59
2023-05-22T08:15:43.774Z,27.92
2023-05-22T08:18:12.023Z,27.67
2023-05-22T08:20:39.320Z,26.93
2023-05-22T08:23:06.705Z,26.81
2023-05-22T08:25:36.319Z,26.05
2023-05-22T08:28:03.697Z,25.79
2023-05-22T08:30:31.325Z,25.86
2023-05-22T08:32:58.363Z,25.71
2023-05-22T08:35:25.427Z,25.84
2023-05-22T08:37:53.252Z,25.65
2023-05-22T08:40:20.737Z,25.80
2023-05-22T08:42:48.302Z,25.54
2023-05-22T08:45:16.963Z,25.59
2023-05-22T08:47:44.643Z,25.86
2023-05-22T08:50:11.885Z,26.08
2023-05-22T08:52:51.336Z,25.82
2023-05-22T08:55:19.918Z,25.54
2023-05-22T08:57:46.977Z,25.13
2023-05-22T09:00:15.500Z,25.19
2023-05-22T09:02:42.731Z,24.93
2023-05-22T09:05:10.094Z,25.31
2023-05-22T09:07:38.392Z,25.35
2023-05-22T09:10:07.433Z,25.29
2023-05-22T09:12:34.657Z,25.26
2023-05-22T09:15:10.381Z,25.62
2023-05-22T09:17:41.289Z,25.25
2023-05-22T09:20:10.688Z,25.31
2023-05-22T09:22:38.495Z,25.06
2023-05-22T09:25:07.215Z,25.28
2023-05-22T09:27:34.474Z,24.90
2023-05-22T09:30:01.652Z,25.05
2023-05-22T09:32:31.827Z,25.31
2023-05-22T09:35:05.540Z,25.48
2023-05-22T09:37:36.567Z,25.18
2023-05-22T09:40:08.302Z,25.13
2023-05-22T09:42:35.566Z,25.00
2023-05-22T09:45:06.785Z,24.70
2023-05-22T09:47:36.699Z,24.25
2023-05-22T09:50:06.611Z,23.59
2023-05-22T09:52:34.976Z,23.32
2023-05-22T09:55:09.128Z,23.64
2023-05-22T09:57:45.656Z,23.95
2023-05-22T10:00:16.307Z,23.91
2023-05-22T10:02:46.206Z,23.73
2023-05-22T10:05:23.449Z,23.35
2023-05-22T10:07:56.700Z,22.99
2023-05-22T10:10:25.006Z,22.68
2023-05-22T10:12:56.179Z,22.42
2023-05-22T10:15:23.472Z,22.33
2023-05-22T10:17:50.913Z,23.55
2023-05-22T10:20:18.054Z,22.90
2023-05-22T10:22:45.121Z,22.66
2023-05-22T10:25:12.282Z,23.16
2023-05-22T10:27:39.676Z,23.51
2023-05-22T10:30:25.587Z,23.67
2023-05-22T10:33:18.424Z,24.29
2023-05-22T10:35:58.710Z,24.21
2023-05-22T10:38:31.673Z,23.94
2023-05-22T10:40:58.742Z,24.33
2023-05-22T10:43:25.972Z,23.92
2023-05-22T10:46:02.617Z,23.55
2023-05-22T10:48:30.869Z,23.16
2023-05-22T10:50:59.849Z,22.72
2023-05-22T10:53:28.916Z,22.78
2023-05-22T10:55:57.157Z,22.36
2023-05-22T10:58:29.041Z,22.96
2023-05-22T11:01:16.713Z,23.07
2023-05-22T11:03:57.884Z,22.48
2023-05-22T11:06:34.424Z,21.14
2023-05-22T11:09:31.939Z,21.05
2023-05-22T11:12:18.186Z,21.02
2023-05-22T11:15:08.721Z,20.57
2023-05-22T11:17:39.932Z,20.83
2023-05-22T11:20:22.796Z,21.38
2023-05-22T11:22:52.209Z,21.78
2023-05-22T11:25:20.172Z,21.73
2023-05-22T11:27:47.734Z,21.98
2023-05-22T11:30:15.342Z,22.64
2023-05-22T11:32:44.648Z,22.36
2023-05-22T11:35:22.052Z,22.54
2023-05-22T11:37:50.337Z,21.92
2023-05-22T11:40:21.742Z,21.57
2023-05-22T11:42:48.881Z,21.07
2023-05-22T11:45:16.534Z,21.60
2023-05-22T11:47:43.908Z,21.81
2023-05-22T11:50:11.971Z,21.93
2023-05-22T11:52:41.297Z,22.19
2023-05-22T11:55:09.318Z,21.89
2023-05-22T11:57:37.868Z,20.85
2023-05-22T12:00:10.962Z,20.84
2023-05-22T12:02:46.876Z,20.95
2023-05-22T12:05:16.167Z,21.67
2023-05-22T12:07:43.773Z,21.38
2023-05-22T12:10:11.515Z,21.68
2023-05-22T12:12:39.259Z,21.89
2023-05-22T12:15:07.499Z,22.19
2023-05-22T12:17:38.905Z,22.49
2023-05-22T12:20:07.441Z,21.75
2023-05-22T12:22:41.199Z,22.00
2023-05-22T12:25:17.349Z,21.87
2023-05-22T12:27:45.917Z,21.39
2023-05-22T12:30:15.568Z,21.34
2023-05-22T12:32:50.841Z,21.38
2023-05-22T12:35:19.533Z,21.25
2023-05-22T12:37:51.523Z,20.80
2023-05-22T12:40:19.233Z,20.51
2023-05-22T12:42:48.003Z,20.57
2023-05-22T12:45:18.013Z,20.72
2023-05-22T12:47:45.980Z,21.09
2023-05-22T12:50:13.695Z,20.73
2023-05-22T12:52:41.308Z,20.24
2023-05-22T12:55:10.512Z,20.10
2023-05-22T12:57:38.059Z,20.15
2023-05-22T13:00:06.676Z,20.11
2023-05-22T13:02:34.331Z,20.04
2023-05-22T13:05:02.008Z,19.64
2023-05-22T13:07:29.771Z,19.57
2023-05-22T13:09:57.311Z,19.61
2023-05-22T13:12:24.970Z,19.55
2023-05-22T13:14:53.763Z,20.25
2023-05-22T13:17:21.447Z,20.04
2023-05-22T13:19:49.190Z,19.47
2023-05-22T13:22:16.957Z,19.71
2023-05-22T13:24:45.114Z,19.41
2023-05-22T13:27:12.718Z,19.64
2023-05-22T13:29:40.240Z,19.57
2023-05-22T13:32:07.783Z,19.35
2023-05-22T13:34:35.538Z,19.65
2023-05-22T13:37:03.705Z,20.01
2023-05-22T13:39:31.279Z,19.91
2023-05-22T13:41:58.858Z,19.48
2023-05-22T13:44:26.678Z,19.28
2023-05-22T13:46:56.350Z,18.94
2023-05-22T13:49:23.960Z,19.03
2023-05-22T13:51:51.752Z,19.00
2023-05-22T13:54:19.325Z,18.98
2023-05-22T13:56:47.045Z,19.06
2023-05-22T13:59:14.596Z,18.98
2023-05-22T14:01:42.555Z,19.25
2023-05-22T14:04:10.260Z,19.19
2023-05-22T14:06:37.954Z,18.90
2023-05-22T14:09:09.598Z,18.75
2023-05-22T14:11:37.283Z,18.74
2023-05-22T14:14:05.002Z,18.64
2023-05-22T14:16:32.609Z,18.22
2023-05-22T14:19:00.712Z,17.56
2023-05-22T14:21:28.285Z,17.22
2023-05-22T14:23:56.011Z,16.99
2023-05-22T14:26:24.515Z,16.37
2023-05-22T14:28:53.113Z,16.08
2023-05-22T14:31:20.630Z,15.98
2023-05-22T14:33:48.317Z,15.34
2023-05-22T14:36:18.014Z,15.37
2023-05-22T14:38:45.689Z,15.09
2023-05-22T14:41:13.449Z,14.66
2023-05-22T14:43:41.088Z,14.52
2023-05-22T14:46:08.763Z,14.12
2023-05-22T14:48:36.347Z,14.15
2023-05-22T14:51:04.059Z,14.26
2023-05-22T14:53:31.564Z,13.67
2023-05-22T14:55:59.229Z,13.45
2023-05-22T14:58:26.909Z,13.03
2023-05-22T15:00:54.468Z,13.16
2023-05-22T15:03:23.793Z,13.45
2023-05-22T15:05:51.412Z,13.28
2023-05-22T15:08:19.436Z,13.15
2023-05-22T15:10:47.531Z,12.72
2023-05-22T15:13:15.167Z,12.50
2023-05-22T15:15:42.690Z,12.75
2023-05-22T15:18:10.810Z,12.82
2023-05-22T15:20:38.512Z,12.95
2023-05-22T15:23:06.185Z,12.98
2023-05-22T15:25:36.793Z,12.63
2023-05-22T15:28:08.126Z,12.44
2023-05-22T15:30:36.654Z,12.48
2023-05-22T15:33:05.024Z,12.54
2023-05-22T15:35:32.787Z,12.46
2023-05-22T15:38:00.517Z,12.49
2023-05-22T15:40:28.095Z,12.17
2023-05-22T15:42:56.159Z,12.06
2023-05-22T15:45:23.769Z,11.83
2023-05-22T15:47:51.883Z,11.86
2023-05-22T15:50:19.490Z,11.64
2023-05-22T15:52:47.011Z,11.58
2023-05-22T15:55:14.579Z,11.65
2023-05-22T15:57:42.157Z,12.15
2023-05-22T16:00:10.389Z,12.20
2023-05-22T16:02:38.010Z,12.29
2023-05-22T16:05:05.845Z,12.60
2023-05-22T16:07:33.389Z,12.52
2023-05-22T16:10:00.952Z,12.35
2023-05-22T16:12:28.710Z,12.79
2023-05-22T16:15:00.316Z,12.71
2023-05-22T16:17:29.650Z,12.86
2023-05-22T16:19:57.316Z,12.91
2023-05-22T16:22:30.362Z,13.11
2023-05-22T16:25:04.574Z,13.08
2023-05-22T16:27:32.944Z,13.32
2023-05-22T16:30:02.886Z,13.07
2023-05-22T16:32:31.692Z,13.12
2023-05-22T16:34:59.207Z,13.24
2023-05-22T16:37:28.900Z,13.18
2023-05-22T16:39:57.038Z,13.37
2023-05-22T16:42:25.581Z,13.59
2023-05-22T16:44:53.228Z,13.63
2023-05-22T16:47:21.541Z,13.94
2023-05-22T16:49:50.072Z,13.98
2023-05-22T16:52:18.264Z,14.25
2023-05-22T16:54:45.851Z,14.54
2023-05-22T16:57:16.256Z,14.48
2023-05-22T16:59:44.522Z,14.83
2023-05-22T17:02:12.209Z,15.08
2023-05-22T17:04:40.802Z,15.34
2023-05-22T17:07:08.346Z,15.58
2023-05-22T17:09:35.995Z,16.00
2023-05-22T17:12:03.648Z,16.58
2023-05-22T17:14:33.336Z,17.29
2023-05-22T17:17:01.072Z,17.69
2023-05-22T17:19:28.631Z,18.11
2023-05-22T17:21:56.936Z,18.48
2023-05-22T17:24:24.911Z,18.73
2023-05-22T17:26:52.595Z,19.29
2023-05-22T17:29:21.879Z,19.82
2023-05-22T17:31:49.522Z,20.17
2023-05-22T17:34:17.175Z,20.63
2023-05-22T17:36:53.318Z,21.06
2023-05-22T17:39:20.950Z,21.35
2023-05-22T17:41:48.525Z,21.85
2023-05-22T17:44:16.310Z,22.09
2023-05-22T17:46:44.043Z,22.58
2023-05-22T17:49:11.886Z,22.68
2023-05-22T17:51:39.436Z,23.05
2023-05-22T17:54:09.452Z,23.39
2023-05-22T17:56:37.070Z,23.59
2023-05-22T17:59:06.846Z,23.86
2023-05-22T18:01:34.899Z,24.20
2023-05-22T18:04:04.792Z,24.32
2023-05-22T18:06:32.791Z,24.54
2023-05-22T18:09:02.375Z,24.83
2023-05-22T18:11:29.954Z,24.88
2023-05-22T18:13:57.510Z,25.26
2023-05-22T18:16:25.563Z,25.49
2023-05-22T18:18:53.317Z,25.82
2023-05-22T18:21:20.953Z,25.97
2023-05-22T18:23:48.981Z,26.35
2023-05-22T18:26:16.610Z,27.00
2023-05-22T18:28:44.330Z,27.44
2023-05-22T18:31:11.975Z,27.48
2023-05-22T18:33:40.305Z,27.71
2023-05-22T18:36:08.580Z,28.15
2023-05-22T18:38:36.499Z,28.57
2023-05-22T18:41:04.347Z,28.77
2023-05-22T18:43:32.076Z,29.03
2023-05-22T18:45:59.754Z,29.50
2023-05-22T18:48:28.476Z,29.87
2023-05-22T18:50:58.037Z,30.10
2023-05-22T18:53:26.294Z,30.35
2023-05-22T18:55:54.249Z,30.69
2023-05-22T18:58:22.264Z,30.87
2023-05-22T19:00:49.902Z,31.28
2023-05-22T19:03:17.958Z,31.72
2023-05-22T19:05:45.478Z,31.85
2023-05-22T19:08:13.594Z,32.06
2023-05-22T19:10:41.976Z,32.25
2023-05-22T19:13:09.858Z,32.54
2023-05-22T19:15:38.635Z,32.39
2023-05-22T19:18:06.218Z,32.34
2023-05-22T19:20:34.265Z,32.13
2023-05-22T19:23:01.979Z,32.15
2023-05-22T19:25:29.690Z,32.15
2023-05-22T19:27:57.771Z,31.90
2023-05-22T19:30:25.344Z,31.89
2023-05-22T19:32:56.067Z,31.89
2023-05-22T19:35:23.702Z,31.95
2023-05-22T19:37:51.343Z,31.84
2023-05-22T19:40:19.014Z,31.89
2023-05-22T19:42:46.669Z,31.87
2023-05-22T19:45:14.252Z,31.90
2023-05-22T19:47:43.502Z,32.01
2023-05-22T19:50:11.762Z,32.20
2023-05-22T19:52:39.396Z,32.28
2023-05-22T19:55:07.204Z,32.28
2023-05-22T19:57:34.841Z,32.43
2023-05-22T20:00:02.736Z,32.51
2023-05-22T20:02:33.781Z,32.69
2023-05-22T20:05:02.186Z,32.80
2023-05-22T20:07:29.775Z,32.96
2023-05-22T20:09:57.635Z,32.95
2023-05-22T20:12:25.361Z,33.47
2023-05-22T20:14:53.068Z,34.66
2023-05-22T20:17:22.814Z,35.40
2023-05-22T20:19:50.410Z,36.05
2023-05-22T20:22:18.935Z,36.56
2023-05-22T20:24:47.442Z,37.13
2023-05-22T20:27:15.065Z,37.42
2023-05-22T20:29:42.670Z,37.84
2023-05-22T20:32:11.028Z,38.52
2023-05-22T20:34:38.624Z,38.59
2023-05-22T20:37:06.856Z,39.22
2023-05-22T20:39:34.628Z,39.41
2023-05-22T20:42:03.083Z,39.67
2023-05-22T20:44:31.868Z,39.87
2023-05-22T20:47:01.094Z,39.70
2023-05-22T20:49:30.044Z,39.49
2023-05-22T20:52:00.235Z,39.27
2023-05-22T20:54:34.617Z,39.34
2023-05-22T20:57:02.438Z,39.51
2023-05-22T20:59:30.089Z,39.61
2023-05-22T21:01:58.121Z,39.82
2023-05-22T21:04:26.295Z,39.74
2023-05-22T21:06:54.635Z,39.75
2023-05-22T21:09:22.309Z,39.71
2023-05-22T21:11:50.438Z,39.67
2023-05-22T21:14:18.049Z,39.72
2023-05-22T21:16:45.667Z,39.68
2023-05-22T21:19:13.301Z,39.53
2023-05-22T21:21:42.707Z,39.51
2023-05-22T21:24:10.488Z,39.45
2023-05-22T21:26:38.150Z,39.55
2023-05-22T21:29:05.992Z,39.51
2023-05-22T21:31:35.522Z,39.47
2023-05-22T21:34:03.514Z,39.51
2023-05-22T21:36:32.174Z,39.50
2023-05-22T21:39:00.906Z,39.45
2023-05-22T21:41:28.638Z,39.47
2023-05-22T21:43:57.216Z,39.59
2023-05-22T21:46:25.421Z,39.77
2023-05-22T21:48:54.361Z,39.88
2023-05-22T21:51:21.924Z,40.05
2023-05-22T21:53:49.476Z,40.28
2023-05-22T21:56:17.416Z,40.40
2023-05-22T21:58:44.995Z,40.28
2023-05-22T22:01:12.499Z,40.25
2023-05-22T22:03:40.290Z,40.17
2023-05-22T22:06:08.236Z,40.12
2023-05-22T22:08:35.966Z,40.26
2023-05-22T22:11:05.763Z,40.36
2023-05-22T22:13:33.327Z,40.33
2023-05-22T22:16:01.026Z,40.47
2023-05-22T22:18:32.493Z,40.44
2023-05-22T22:21:02.557Z,40.39
2023-05-22T22:23:30.348Z,40.60
2023-05-22T22:25:57.945Z,40.76
2023-05-22T22:28:25.696Z,40.88
2023-05-22T22:30:55.351Z,41.12
2023-05-22T22:33:23.119Z,41.15
2023-05-22T22:35:51.550Z,41.19
2023-05-22T22:38:21.790Z,41.19
2023-05-22T22:40:49.328Z,41.23
2023-05-22T22:43:16.913Z,41.38
2023-05-22T22:45:44.509Z,41.44
2023-05-22T22:48:12.462Z,41.70
2023-05-22T22:50:40.275Z,41.80
2023-05-22T22:53:08.096Z,42.00
2023-05-22T22:55:35.778Z,42.10
2023-05-22T22:58:03.444Z,42.30
2023-05-22T23:00:31.811Z,42.48
2023-05-22T23:02:59.608Z,42.39
2023-05-22T23:05:27.213Z,42.30
2023-05-22T23:07:54.858Z,42.31
2023-05-22T23:10:22.530Z,42.24
2023-05-22T23:12:50.390Z,42.28
2023-05-22T23:15:18.139Z,42.22
2023-05-22T23:17:45.737Z,42.30
2023-05-22T23:20:13.561Z,42.54
2023-05-22T23:22:41.196Z,42.75
2023-05-22T23:25:09.188Z,43.05
2023-05-22T23:27:37.466Z,43.25
2023-05-22T23:30:06.526Z,43.42
2023-05-22T23:32:34.434Z,43.76
2023-05-22T23:35:04.044Z,43.91
2023-05-22T23:37:31.605Z,44.33
2023-05-22T23:40:00.254Z,44.77
2023-05-22T23:42:27.907Z,45.02
2023-05-22T23:44:55.692Z,45.25
2023-05-22T23:47:23.313Z,45.75
2023-05-22T23:49:51.851Z,46.18
2023-05-22T23:52:19.395Z,46.49
2023-05-22T23:54:47.040Z,46.65
2023-05-22T23:57:14.919Z,46.85
2023-05-22T23:59:43.833Z,47.07
